sensor_id;sensor_type;location;lat;lon;timestamp;temperature;humidity
61400;DHT22;47269;48.182;-1.946;2023-03-23T06:00:49;11.80;99.90
61400;DHT22;47269;48.182;-1.946;2023-03-23T06:03:15;11.80;99.90
61400;DHT22;47269;48.182;-1.946;2023-03-23T06:05:44;11.80;99.90
61400;DHT22;47269;48.182;-1.946;2023-03-23T06:08:10;11.80;99.90
61400;DHT22;47269;48.182;-1.946;2023-03-23T06:10:36;11.80;99.90
61400;DHT22;47269;48.182;-1.946;2023-03-23T06:13:03;11.90;99.90
61400;DHT22;47269;48.182;-1.946;2023-03-23T06:15:29;11.90;99.90
61400;DHT22;47269;48.182;-1.946;2023-03-23T06:18:00;11.90;99.90
61400;DHT22;47269;48.182;-1.946;2023-03-23T06:20:25;11.90;99.90
61400;DHT22;47269;48.182;-1.946;2023-03-23T06:22:51;11.90;99.90
61400;DHT22;47269;48.182;-1.946;2023-03-23T06:25:17;11.90;99.90
61400;DHT22;47269;48.182;-1.946;2023-03-23T06:27:43;11.90;99.90
61400;DHT22;47269;48.182;-1.946;2023-03-23T06:30:09;12.00;99.90
61400;DHT22;47269;48.182;-1.946;2023-03-23T06:32:35;11.90;99.90
61400;DHT22;47269;48.182;-1.946;2023-03-23T06:35:00;11.90;99.90
61400;DHT22;47269;48.182;-1.946;2023-03-23T06:37:26;12.00;99.90
61400;DHT22;47269;48.182;-1.946;2023-03-23T06:39:52;12.00;99.90
61400;DHT22;47269;48.182;-1.946;2023-03-23T06:42:18;12.00;99.90
61400;DHT22;47269;48.182;-1.946;2023-03-23T06:44:43;12.00;99.90
61400;DHT22;47269;48.182;-1.946;2023-03-23T06:47:09;12.00;99.90
61400;DHT22;47269;48.182;-1.946;2023-03-23T06:49:34;12.10;99.90
61400;DHT22;47269;48.182;-1.946;2023-03-23T06:52:00;12.10;99.90
61400;DHT22;47269;48.182;-1.946;2023-03-23T06:54:27;12.10;99.90
61400;DHT22;47269;48.182;-1.946;2023-03-23T06:56:52;12.20;99.90
61400;DHT22;47269;48.182;-1.946;2023-03-23T06:59:18;12.20;99.90
61400;DHT22;47269;48.182;-1.946;2023-03-23T07:01:44;12.20;99.90
61400;DHT22;47269;48.182;-1.946;2023-03-23T07:04:11;12.20;99.90
61400;DHT22;47269;48.182;-1.946;2023-03-23T07:06:37;12.20;99.90
61400;DHT22;47269;48.182;-1.946;2023-03-23T07:09:03;12.30;99.90
61400;DHT22;47269;48.182;-1.946;2023-03-23T07:11:29;12.30;99.90
61400;DHT22;47269;48.182;-1.946;2023-03-23T07:13:54;12.30;99.90
61400;DHT22;47269;48.182;-1.946;2023-03-23T07:16:20;12.40;99.90
61400;DHT22;47269;48.182;-1.946;2023-03-23T07:18:46;12.40;99.90
61400;DHT22;47269;48.182;-1.946;2023-03-23T07:21:11;12.50;99.90
61400;DHT22;47269;48.182;-1.946;2023-03-23T07:23:37;12.50;99.90
61400;DHT22;47269;48.182;-1.946;2023-03-23T07:26:03;12.60;99.90
61400;DHT22;47269;48.182;-1.946;2023-03-23T07:28:28;12.60;99.90
61400;DHT22;47269;48.182;-1.946;2023-03-23T07:30:54;12.60;99.90
61400;DHT22;47269;48.182;-1.946;2023-03-23T07:33:20;12.70;99.90
61400;DHT22;47269;48.182;-1.946;2023-03-23T07:35:46;12.80;99.90
61400;DHT22;47269;48.182;-1.946;2023-03-23T07:38:13;12.90;99.90
61400;DHT22;47269;48.182;-1.946;2023-03-23T07:40:39;12.90;99.90
61400;DHT22;47269;48.182;-1.946;2023-03-23T07:43:05;12.90;99.90
61400;DHT22;47269;48.182;-1.946;2023-03-23T07:45:31;12.90;99.90
61400;DHT22;47269;48.182;-1.946;2023-03-23T07:47:57;12.90;99.90
61400;DHT22;47269;48.182;-1.946;2023-03-23T07:50:22;12.90;99.90
61400;DHT22;47269;48.182;-1.946;2023-03-23T07:52:56;12.90;99.90
61400;DHT22;47269;48.182;-1.946;2023-03-23T07:55:23;12.90;99.90
61400;DHT22;47269;48.182;-1.946;2023-03-23T07:57:50;13.00;99.90
61400;DHT22;47269;48.182;-1.946;2023-03-23T08:00:16;13.10;99.90
61400;DHT22;47269;48.182;-1.946;2023-03-23T08:02:45;13.10;99.90
61400;DHT22;47269;48.182;-1.946;2023-03-23T08:05:14;13.10;99.90
61400;DHT22;47269;48.182;-1.946;2023-03-23T08:07:40;13.10;99.90
61400;DHT22;47269;48.182;-1.946;2023-03-23T08:10:08;13.10;99.90
61400;DHT22;47269;48.182;-1.946;2023-03-23T08:12:36;13.10;99.90
61400;DHT22;47269;48.182;-1.946;2023-03-23T08:15:02;13.10;99.90
61400;DHT22;47269;48.182;-1.946;2023-03-23T08:17:28;13.30;99.90
61400;DHT22;47269;48.182;-1.946;2023-03-23T08:19:53;13.50;99.90
61400;DHT22;47269;48.182;-1.946;2023-03-23T08:22:19;13.60;99.90
61400;DHT22;47269;48.182;-1.946;2023-03-23T08:24:47;13.60;99.90
61400;DHT22;47269;48.182;-1.946;2023-03-23T08:27:13;13.80;99.90
61400;DHT22;47269;48.182;-1.946;2023-03-23T08:29:39;13.80;99.90
61400;DHT22;47269;48.182;-1.946;2023-03-23T08:32:06;13.60;99.90
61400;DHT22;47269;48.182;-1.946;2023-03-23T08:34:31;13.50;99.90
61400;DHT22;47269;48.182;-1.946;2023-03-23T08:36:57;13.40;99.90
61400;DHT22;47269;48.182;-1.946;2023-03-23T08:39:23;13.30;99.90
61400;DHT22;47269;48.182;-1.946;2023-03-23T08:41:50;13.30;99.90
61400;DHT22;47269;48.182;-1.946;2023-03-23T08:44:15;13.20;99.90
61400;DHT22;47269;48.182;-1.946;2023-03-23T08:46:41;13.10;99.90
61400;DHT22;47269;48.182;-1.946;2023-03-23T08:49:07;13.00;99.90
61400;DHT22;47269;48.182;-1.946;2023-03-23T08:51:32;13.00;99.90
61400;DHT22;47269;48.182;-1.946;2023-03-23T08:53:58;12.90;99.90
61400;DHT22;47269;48.182;-1.946;2023-03-23T08:56:24;12.90;99.90
61400;DHT22;47269;48.182;-1.946;2023-03-23T08:58:49;12.90;99.90
61400;DHT22;47269;48.182;-1.946;2023-03-23T09:01:15;13.00;99.90
61400;DHT22;47269;48.182;-1.946;2023-03-23T09:03:40;13.20;99.90
61400;DHT22;47269;48.182;-1.946;2023-03-23T09:06:07;13.20;99.90
61400;DHT22;47269;48.182;-1.946;2023-03-23T09:08:33;13.40;99.90
61400;DHT22;47269;48.182;-1.946;2023-03-23T09:11:01;13.50;99.90
61400;DHT22;47269;48.182;-1.946;2023-03-23T09:13:27;13.60;99.90
61400;DHT22;47269;48.182;-1.946;2023-03-23T09:15:53;13.80;99.90
61400;DHT22;47269;48.182;-1.946;2023-03-23T09:18:19;13.70;99.90
61400;DHT22;47269;48.182;-1.946;2023-03-23T09:20:45;13.70;99.90
61400;DHT22;47269;48.182;-1.946;2023-03-23T09:23:10;13.50;99.90
61400;DHT22;47269;48.182;-1.946;2023-03-23T09:25:38;13.70;99.90
61400;DHT22;47269;48.182;-1.946;2023-03-23T09:28:04;13.60;99.90
61400;DHT22;47269;48.182;-1.946;2023-03-23T09:30:30;13.50;99.90
61400;DHT22;47269;48.182;-1.946;2023-03-23T09:32:56;13.60;99.90
61400;DHT22;47269;48.182;-1.946;2023-03-23T09:35:24;13.50;99.90
61400;DHT22;47269;48.182;-1.946;2023-03-23T09:37:50;13.50;99.90
61400;DHT22;47269;48.182;-1.946;2023-03-23T09:40:23;13.70;99.90
61400;DHT22;47269;48.182;-1.946;2023-03-23T09:50:37;14.30;99.90
61400;DHT22;47269;48.182;-1.946;2023-03-23T09:53:10;14.30;99.90
61400;DHT22;47269;48.182;-1.946;2023-03-23T09:55:37;14.30;99.90
61400;DHT22;47269;48.182;-1.946;2023-03-23T09:58:15;14.30;99.90
61400;DHT22;47269;48.182;-1.946;2023-03-23T10:00:43;14.40;99.90
61400;DHT22;47269;48.182;-1.946;2023-03-23T10:05:44;14.30;99.90
61400;DHT22;47269;48.182;-1.946;2023-03-23T10:08:11;14.10;99.90
61400;DHT22;47269;48.182;-1.946;2023-03-23T10:14:06;14.20;99.90
61400;DHT22;47269;48.182;-1.946;2023-03-23T10:16:13;14.30;99.90
61400;DHT22;47269;48.182;-1.946;2023-03-23T10:21:24;14.10;99.90
61400;DHT22;47269;48.182;-1.946;2023-03-23T10:26:25;14.00;99.90
61400;DHT22;47269;48.182;-1.946;2023-03-23T10:29:08;14.20;99.90
61400;DHT22;47269;48.182;-1.946;2023-03-23T10:31:37;14.40;99.90
61400;DHT22;47269;48.182;-1.946;2023-03-23T10:34:16;14.30;99.90
61400;DHT22;47269;48.182;-1.946;2023-03-23T10:39:29;14.30;99.90
61400;DHT22;47269;48.182;-1.946;2023-03-23T10:41:56;14.40;99.90
61400;DHT22;47269;48.182;-1.946;2023-03-23T10:44:24;14.50;99.90
61400;DHT22;47269;48.182;-1.946;2023-03-23T10:49:23;14.60;99.90
61400;DHT22;47269;48.182;-1.946;2023-03-23T10:51:57;14.70;99.90
61400;DHT22;47269;48.182;-1.946;2023-03-23T10:54:31;14.60;99.90
61400;DHT22;47269;48.182;-1.946;2023-03-23T10:56:58;14.50;99.90
61400;DHT22;47269;48.182;-1.946;2023-03-23T10:59:28;14.20;99.90
